Nearby METAR Reports

 

KDEN - Denver, Colorado, Denver International Airport, USA
Distance from station: W 194mi, 312.4km
Updated: Thu, 02-Dec-2021 2:53am CST
Clear
Clear
 Wind from SW
Wind: SW 13 mph , 20 km/h
Temperature: 48°F , 9°C
Wind Chill: 43°F , 6°C
Dew Point: 21°F , -6°C
Humidity: 34%
Barometer: 30.17 inHg , 1021.7 hPa
Clouds: Clear
Visibility: 10 miles , 16 km
2021/12/02 08:53 KDEN 020853Z 22011KT 10SM CLR 09/M06 A3017 RMK AO2 SLP158 T00941061 58000